Robins Air Force Base
KWRB : now visible

Airfield :











YOU CAN JOIN US ON...

 
LOGIN :

Register | Disclaimer

   EN    FR    IT 

 









Legend :    VFR   Marginal VFR   IFR   Intensive IFR   Very Intensive IFR
Visi :
Ceiling :
>= 8 km
>= 3000ft
5 to 8 km
1000 to 3000 ft
1500m to 5 km
500 to 1000 ft
800 to 1500m
200 to 500 ft
< 800m
< 200 ft
Symbols :   Thunderstorms  Fog  Heavy snow  Heavy precipitations  Wind > 20 kt






- Airport Elevation : 294 ft


KWRB - Robins Air Force Base

CURRENT METAR :
  • 190256Z 26006KT 10SM BKN150 14/02 A2981 RMK AO2A SLP096 T01390018 52007

EXPIRED METARs :
  • 190156Z 28006KT 10SM CLR 15/01 A2980 RMK AO2A SLP093 T01470009
  • 190056Z 27009KT 10SM SCT160 16/01 A2979 RMK AO2A SLP090 T01550005

TAF TAF KWRB
Valid from the 18 at 21:00 until the 20 at 03:00 UTC


182100Z 1821/2003 24010G15KT 9999 SCT060 QNH2973INS
BECMG 1900/1901 30009KT 9999 FEW050 QNH2990INS
BECMG 1912/1913 27012KT 9999 FEW050 QNH2998INS TX21/1822Z TN06/1911Z



MET'MAP, your aeronautical weather chart ! - Copyright ORBIFLY December 2007 - Disclaimer

ORBIFLY MET'MAP TEAM :

Programming & Development : Alexandra Zaïnal
Concept & Development : Baudouin d'Aumeries
Co-Development & Prog : Marc-Olivier Méhu
Technical & hardware support : Manuel Goepfert

Contact : metmap@orbifly.com




SOURCES & CREDITS :

   NOAA       Earth
Advisory